Terminal Aerodrome Forecast
Issued by NWS

Home | Current Version | Previous Version | Text Only | Print | Product List | Glossary On
Versions: 1 2 3 4 5 6 7 8 9 10 11 12
000
FTUS46 KSTO 272300
TAFRBL
TAF
KRBL 272328Z 2800/2824 VRB05KT P6SM BKN200
     FM281500 16008KT P6SM SCT025 BKN060
     FM282200 17007KT P6SM -RA OVC080=

USA.gov is the U.S. government's official web portal to all federal, state and local government web resources and services.